Time,TemperatureF,DewpointF,PressureIn,WindDirection,WindDirectionDegrees,WindSpeedMPH,WindSpeedGustMPH,Humidity,HourlyPrecipIn,Conditions,Clouds,dailyrainin,SoftwareType,DateUTC
2014-08-22 00:00:00,69.5,45.9,30.08,North,0,0.9,0.9,43,0.00,,,0.00,WUHU216HW,2014-08-22 07:00:00,
2014-08-22 00:05:00,69.5,45.9,30.08,North,0,0.9,0.9,43,0.00,,,0.00,WUHU216HW,2014-08-22 07:05:00,
2014-08-22 00:30:00,69.1,46.2,30.08,North,0,0.2,0.2,44,0.00,,,0.00,WUHU216HW,2014-08-22 07:30:00,
2014-08-22 00:35:00,69.1,46.2,30.08,North,0,0.2,0.2,44,0.00,,,0.00,WUHU216HW,2014-08-22 07:35:00,
2014-08-22 01:00:00,68.4,44.9,30.07,North,0,0.0,0.0,43,0.00,,,0.00,WUHU216HW,2014-08-22 08:00:00,
2014-08-22 01:05:00,68.4,44.9,30.07,North,0,0.2,0.2,43,0.00,,,0.00,WUHU216HW,2014-08-22 08:05:00,
2014-08-22 01:10:00,68.4,44.9,30.07,North,0,0.2,0.2,43,0.00,,,0.00,WUHU216HW,2014-08-22 08:10:00,
2014-08-22 01:30:00,67.5,44.7,30.07,North,0,0.7,0.7,44,0.00,,,0.00,WUHU216HW,2014-08-22 08:30:00,
2014-08-22 01:35:00,67.5,44.7,30.07,North,0,0.7,0.7,44,0.00,,,0.00,WUHU216HW,2014-08-22 08:35:00,
2014-08-22 02:00:00,67.1,45.0,30.07,North,0,0.4,0.4,45,0.00,,,0.00,WUHU216HW,2014-08-22 09:00:00,
2014-08-22 02:05:00,67.1,45.0,30.07,North,0,0.4,0.4,45,0.00,,,0.00,WUHU216HW,2014-08-22 09:05:00,
2014-08-22 02:30:00,66.8,44.6,30.07,NW,315,0.0,0.0,45,0.00,,,0.00,WUHU216HW,2014-08-22 09:30:00,
2014-08-22 02:35:00,66.8,44.6,30.07,NW,315,0.0,0.0,45,0.00,,,0.00,WUHU216HW,2014-08-22 09:35:00,
2014-08-22 03:00:00,66.4,44.9,30.07,North,0,0.0,0.0,46,0.00,,,0.00,WUHU216HW,2014-08-22 10:00:00,
2014-08-22 03:05:00,66.4,44.9,30.07,North,0,0.0,0.0,46,0.00,,,0.00,WUHU216HW,2014-08-22 10:05:00,
2014-08-22 03:10:00,66.4,44.9,30.07,North,0,0.0,0.0,46,0.00,,,0.00,WUHU216HW,2014-08-22 10:10:00,
2014-08-22 03:30:00,65.9,44.5,30.07,North,0,0.0,0.0,46,0.00,,,0.00,WUHU216HW,2014-08-22 10:30:00,
2014-08-22 03:35:00,65.9,44.5,30.07,North,0,0.0,0.0,46,0.00,,,0.00,WUHU216HW,2014-08-22 10:35:00,
2014-08-22 04:00:00,65.2,44.4,30.06,North,0,0.0,0.0,47,0.00,,,0.00,WUHU216HW,2014-08-22 11:00:00,
2014-08-22 04:05:00,65.2,44.4,30.06,North,0,0.0,0.0,47,0.00,,,0.00,WUHU216HW,2014-08-22 11:05:00,
2014-08-22 04:30:00,64.6,43.8,30.05,NNW,338,1.1,1.1,47,0.00,,,0.00,WUHU216HW,2014-08-22 11:30:00,
2014-08-22 04:35:00,64.6,43.8,30.05,NNW,338,1.1,1.1,47,0.00,,,0.00,WUHU216HW,2014-08-22 11:35:00,
2014-08-22 05:00:00,64.1,43.9,30.05,NNW,338,1.1,1.1,48,0.00,,,0.00,WUHU216HW,2014-08-22 12:00:00,
2014-08-22 05:05:00,64.1,43.9,30.05,NNW,338,1.1,1.1,48,0.00,,,0.00,WUHU216HW,2014-08-22 12:05:00,
2014-08-22 05:30:00,63.9,43.8,30.05,NNW,338,0.2,0.2,48,0.00,,,0.00,WUHU216HW,2014-08-22 12:30:00,
2014-08-22 05:35:00,63.9,43.8,30.05,NNW,338,0.2,0.2,48,0.00,,,0.00,WUHU216HW,2014-08-22 12:35:00,
2014-08-22 06:00:00,64.4,44.2,30.06,NNW,338,1.3,1.3,48,0.00,,,0.00,WUHU216HW,2014-08-22 13:00:00,
2014-08-22 06:05:00,64.4,44.2,30.06,NNW,338,1.3,1.3,48,0.00,,,0.00,WUHU216HW,2014-08-22 13:05:00,
2014-08-22 06:30:00,64.4,44.8,30.06,NNW,338,1.3,1.3,49,0.00,,,0.00,WUHU216HW,2014-08-22 13:30:00,
2014-08-22 06:35:00,64.4,44.8,30.06,NNW,338,1.3,1.3,49,0.00,,,0.00,WUHU216HW,2014-08-22 13:35:00,
2014-08-22 07:00:00,64.8,46.2,30.07,NNW,338,0.0,0.0,51,0.00,,,0.00,WUHU216HW,2014-08-22 14:00:00,
2014-08-22 07:05:00,64.8,46.2,30.07,NNW,338,0.0,0.0,51,0.00,,,0.00,WUHU216HW,2014-08-22 14:05:00,
2014-08-22 07:30:00,65.5,46.4,30.07,North,0,0.4,0.4,50,0.00,,,0.00,WUHU216HW,2014-08-22 14:30:00,
2014-08-22 07:35:00,65.5,46.4,30.07,North,0,0.4,0.4,50,0.00,,,0.00,WUHU216HW,2014-08-22 14:35:00,
2014-08-22 08:00:00,68.4,47.9,30.07,North,0,0.4,0.4,48,0.00,,,0.00,WUHU216HW,2014-08-22 15:00:00,
2014-08-22 08:05:00,68.4,47.9,30.07,North,0,0.4,0.4,48,0.00,,,0.00,WUHU216HW,2014-08-22 15:05:00,
2014-08-22 08:30:00,72.9,50.2,30.07,SSW,203,3.4,3.4,45,0.02,,,0.00,WUHU216HW,2014-08-22 15:30:00,
2014-08-22 08:35:00,72.9,50.2,30.07,SSW,203,3.4,3.4,45,0.02,,,0.00,WUHU216HW,2014-08-22 15:35:00,
2014-08-22 09:00:00,77.8,50.9,30.07,SSW,203,1.8,1.8,39,0.02,,,0.02,WUHU216HW,2014-08-22 16:00:00,
2014-08-22 09:05:00,77.9,51.0,30.07,SSW,203,1.8,1.8,39,0.02,,,0.02,WUHU216HW,2014-08-22 16:05:00,
2014-08-22 09:10:00,77.9,51.0,30.07,SSW,203,1.8,1.8,39,0.02,,,0.02,WUHU216HW,2014-08-22 16:10:00,
2014-08-22 09:30:00,80.5,50.1,30.06,SSE,158,1.8,1.8,35,0.00,,,0.02,WUHU216HW,2014-08-22 16:30:00,
2014-08-22 09:35:00,80.5,50.1,30.06,SSE,158,1.8,1.8,35,0.00,,,0.02,WUHU216HW,2014-08-22 16:35:00,
2014-08-22 10:00:00,82.4,51.0,30.07,SSE,158,3.1,3.1,34,0.00,,,0.02,WUHU216HW,2014-08-22 17:00:00,
2014-08-22 10:05:00,82.4,51.0,30.07,SSE,158,1.8,3.1,34,0.00,,,0.02,WUHU216HW,2014-08-22 17:05:00,
2014-08-22 10:10:00,82.4,51.0,30.07,SSE,158,1.8,1.8,34,0.00,,,0.02,WUHU216HW,2014-08-22 17:10:00,
2014-08-22 10:30:00,83.5,48.9,30.07,South,180,2.5,2.5,30,0.00,,,0.02,WUHU216HW,2014-08-22 17:30:00,
2014-08-22 10:35:00,83.5,48.9,30.07,South,180,2.5,2.5,30,0.00,,,0.02,WUHU216HW,2014-08-22 17:35:00,
2014-08-22 11:00:00,84.1,48.2,30.07,SW,225,6.3,6.3,29,0.00,,,0.02,WUHU216HW,2014-08-22 18:00:00,
2014-08-22 11:05:00,83.9,48.2,30.07,SSE,158,2.2,6.3,29,0.00,,,0.02,WUHU216HW,2014-08-22 18:05:00,
2014-08-22 11:10:00,83.9,48.2,30.07,SSE,158,2.2,2.2,29,0.00,,,0.02,WUHU216HW,2014-08-22 18:10:00,
2014-08-22 11:30:00,84.1,47.3,30.06,SSE,158,2.5,2.5,28,0.00,,,0.02,WUHU216HW,2014-08-22 18:30:00,
2014-08-22 11:35:00,84.1,47.3,30.06,SSE,158,2.5,2.5,28,0.00,,,0.02,WUHU216HW,2014-08-22 18:35:00,
2014-08-22 12:00:00,86.0,47.9,30.06,SSE,158,1.8,1.8,27,0.00,,,0.02,WUHU216HW,2014-08-22 19:00:00,
2014-08-22 12:05:00,86.0,49.0,30.06,SSE,158,1.8,1.8,28,0.00,,,0.02,WUHU216HW,2014-08-22 19:05:00,
2014-08-22 12:30:00,85.5,46.4,30.06,SSW,203,2.9,2.9,26,0.00,,,0.02,WUHU216HW,2014-08-22 19:30:00,
2014-08-22 12:35:00,85.5,46.4,30.06,SSW,203,2.9,2.9,26,0.00,,,0.02,WUHU216HW,2014-08-22 19:35:00,
2014-08-22 13:00:00,85.7,46.5,30.05,SSW,203,2.9,2.9,26,0.00,,,0.02,WUHU216HW,2014-08-22 20:00:00,
2014-08-22 13:05:00,85.7,45.5,30.05,SSW,203,2.7,2.9,25,0.00,,,0.02,WUHU216HW,2014-08-22 20:05:00,
2014-08-22 13:10:00,85.7,45.5,30.05,SSW,203,2.7,2.7,25,0.00,,,0.02,WUHU216HW,2014-08-22 20:10:00,
2014-08-22 13:30:00,86.0,46.8,30.05,WSW,248,2.5,2.5,26,0.00,,,0.02,WUHU216HW,2014-08-22 20:30:00,
2014-08-22 13:35:00,86.0,46.8,30.05,WSW,248,2.5,2.5,26,0.00,,,0.02,WUHU216HW,2014-08-22 20:35:00,
2014-08-22 14:00:00,86.6,47.3,30.04,South,180,5.1,5.1,26,0.00,,,0.02,WUHU216HW,2014-08-22 21:00:00,
2014-08-22 14:05:00,86.6,47.3,30.04,South,180,5.1,5.1,26,0.00,,,0.02,WUHU216HW,2014-08-22 21:05:00,
2014-08-22 14:30:00,86.0,49.0,30.04,SSE,158,4.0,4.0,28,0.00,,,0.02,WUHU216HW,2014-08-22 21:30:00,
2014-08-22 14:35:00,86.0,49.0,30.04,SSE,158,4.0,4.0,28,0.00,,,0.02,WUHU216HW,2014-08-22 21:35:00,
2014-08-22 15:00:00,85.7,47.6,30.03,SSE,158,1.8,1.8,27,0.00,,,0.02,WUHU216HW,2014-08-22 22:00:00,
2014-08-22 15:05:00,85.7,47.6,30.03,SSE,158,1.8,1.8,27,0.00,,,0.02,WUHU216HW,2014-08-22 22:05:00,
2014-08-22 15:30:00,85.0,45.9,30.02,WSW,248,5.8,5.8,26,0.00,,,0.02,WUHU216HW,2014-08-22 22:30:00,
2014-08-22 15:35:00,85.0,45.9,30.02,WSW,248,5.8,5.8,26,0.00,,,0.02,WUHU216HW,2014-08-22 22:35:00,
2014-08-22 16:00:00,84.8,49.0,30.02,South,180,2.5,2.5,29,0.00,,,0.02,WUHU216HW,2014-08-22 23:00:00,
2014-08-22 16:05:00,84.8,49.0,30.02,South,180,2.5,2.5,29,0.00,,,0.02,WUHU216HW,2014-08-22 23:05:00,
2014-08-22 16:30:00,83.9,48.2,30.02,SSW,203,3.1,3.1,29,0.00,,,0.02,WUHU216HW,2014-08-22 23:30:00,
2014-08-22 16:35:00,83.9,48.2,30.02,SSW,203,3.1,3.1,29,0.00,,,0.02,WUHU216HW,2014-08-22 23:35:00,
2014-08-22 17:00:00,82.8,47.2,30.02,SW,225,1.6,1.6,29,0.00,,,0.02,WUHU216HW,2014-08-23 00:00:00,
2014-08-22 17:05:00,82.8,47.2,30.02,SW,225,1.6,1.6,29,0.00,,,0.02,WUHU216HW,2014-08-23 00:05:00,
2014-08-22 17:30:00,81.7,47.4,30.03,SSE,158,1.3,1.3,30,0.00,,,0.02,WUHU216HW,2014-08-23 00:30:00,
2014-08-22 17:35:00,81.7,47.4,30.03,SSE,158,1.3,1.3,30,0.00,,,0.02,WUHU216HW,2014-08-23 00:35:00,
2014-08-22 17:59:00,80.8,47.3,30.03,SSW,203,1.3,1.3,31,0.00,,,0.02,WUHU216HW,2014-08-23 00:59:00,
2014-08-22 18:04:00,80.8,47.3,30.03,SSW,203,1.8,1.8,31,0.00,,,0.02,WUHU216HW,2014-08-23 01:04:00,
2014-08-22 18:09:00,80.8,47.3,30.03,SSW,203,1.8,1.8,31,0.00,,,0.02,WUHU216HW,2014-08-23 01:09:00,
2014-08-22 18:30:00,79.7,48.0,30.03,WSW,248,0.2,0.2,33,0.00,,,0.02,WUHU216HW,2014-08-23 01:30:00,
2014-08-22 18:35:00,79.7,48.0,30.03,WSW,248,0.2,0.2,33,0.00,,,0.02,WUHU216HW,2014-08-23 01:35:00,
2014-08-22 18:59:00,78.3,47.4,30.03,WSW,248,1.6,1.6,34,0.00,,,0.02,WUHU216HW,2014-08-23 01:59:00,
2014-08-22 19:05:00,78.3,47.4,30.03,WSW,248,1.6,1.6,34,0.00,,,0.02,WUHU216HW,2014-08-23 02:05:00,
2014-08-22 19:10:00,78.3,47.4,30.03,WSW,248,1.6,1.6,34,0.00,,,0.02,WUHU216HW,2014-08-23 02:10:00,
2014-08-22 19:30:00,77.4,47.4,30.03,WSW,248,0.2,0.2,35,0.00,,,0.02,WUHU216HW,2014-08-23 02:30:00,
2014-08-22 19:35:00,77.4,47.4,30.03,WSW,248,0.2,0.2,35,0.00,,,0.02,WUHU216HW,2014-08-23 02:35:00,
2014-08-22 19:59:00,76.1,49.4,30.03,WSW,248,0.9,0.9,39,0.00,,,0.02,WUHU216HW,2014-08-23 02:59:00,
2014-08-22 20:00:00,76.1,49.4,30.03,WSW,248,0.9,0.9,39,0.00,,,0.02,WUHU216HW,2014-08-23 03:00:00,
2014-08-22 20:04:00,76.1,49.4,30.03,WSW,248,0.9,0.9,39,0.00,,,0.02,WUHU216HW,2014-08-23 03:04:00,
2014-08-22 20:09:00,76.1,49.4,30.03,WSW,248,0.9,0.9,39,0.00,,,0.02,WUHU216HW,2014-08-23 03:09:00,
2014-08-22 20:30:00,75.1,49.8,30.04,SSW,203,1.8,1.8,41,0.00,,,0.02,WUHU216HW,2014-08-23 03:30:00,
2014-08-22 20:35:00,75.1,49.8,30.04,SSW,203,1.8,1.8,41,0.00,,,0.02,WUHU216HW,2014-08-23 03:35:00,
2014-08-22 20:59:00,73.6,49.1,30.05,West,270,0.0,0.0,42,0.00,,,0.02,WUHU216HW,2014-08-23 03:59:00,
2014-08-22 21:01:00,73.6,49.1,30.05,West,270,0.4,0.4,42,0.00,,,0.02,WUHU216HW,2014-08-23 04:01:00,
2014-08-22 21:06:00,73.6,49.1,30.05,West,270,0.4,0.4,42,0.00,,,0.02,WUHU216HW,2014-08-23 04:06:00,
2014-08-22 21:30:00,72.7,49.4,30.06,WNW,293,0.0,0.0,44,0.00,,,0.02,WUHU216HW,2014-08-23 04:30:00,
2014-08-22 21:35:00,72.7,49.4,30.06,WNW,293,0.0,0.0,44,0.00,,,0.02,WUHU216HW,2014-08-23 04:35:00,
2014-08-22 21:59:00,72.0,48.8,30.06,WSW,248,0.4,0.4,44,0.00,,,0.02,WUHU216HW,2014-08-23 04:59:00,
2014-08-22 22:04:00,72.0,48.8,30.06,WSW,248,0.7,0.7,44,0.00,,,0.02,WUHU216HW,2014-08-23 05:04:00,
2014-08-22 22:09:00,72.0,48.8,30.06,WSW,248,0.7,0.7,44,0.00,,,0.02,WUHU216HW,2014-08-23 05:09:00,
2014-08-22 22:30:00,70.6,48.1,30.06,West,270,1.1,1.1,45,0.00,,,0.02,WUHU216HW,2014-08-23 05:30:00,
2014-08-22 22:35:00,70.6,48.1,30.06,West,270,1.1,1.1,45,0.00,,,0.02,WUHU216HW,2014-08-23 05:35:00,
2014-08-22 23:00:00,69.5,48.3,30.06,NNW,338,0.9,0.9,47,0.00,,,0.02,WUHU216HW,2014-08-23 06:00:00,
2014-08-22 23:05:00,69.5,48.3,30.06,NNW,338,0.9,0.9,47,0.00,,,0.02,WUHU216HW,2014-08-23 06:05:00,
2014-08-22 23:30:00,68.8,47.1,30.06,NNW,338,0.4,0.4,46,0.00,,,0.02,WUHU216HW,2014-08-23 06:30:00,
2014-08-22 23:35:00,68.8,47.1,30.06,NNW,338,0.4,0.4,46,0.00,,,0.02,WUHU216HW,2014-08-23 06:35:00,